Time;durP1;ratioP1;P1;durP2;ratioP2;P2;SDS_P1;SDS_P2;PMS_P1;PMS_P2;Temp;Humidity;BMP_temperature;BMP_pressure;BME280_temperature;BME280_humidity;BME280_pressure;Samples;Min_cycle;Max_cycle;Signal;HPM_P1;HPM_P2
2022/07/03 00:00:43;;;;;;;2.95;2.03;;;24.50;60.20;;;;;;4954454;28;20035;-72
2022/07/03 00:03:09;;;;;;;2.97;2.13;;;24.50;60.10;;;;;;4955148;28;20415;-72
2022/07/03 00:05:36;;;;;;;3.10;1.95;;;24.50;60.00;;;;;;4954932;28;20035;-72
2022/07/03 00:08:03;;;;;;;3.47;2.00;;;24.50;60.10;;;;;;4938280;29;20040;-72
2022/07/03 00:10:29;;;;;;;2.72;2.08;;;24.50;60.10;;;;;;4955426;28;20019;-72
2022/07/03 00:12:56;;;;;;;3.22;1.98;;;24.50;60.00;;;;;;4974709;23;20102;-79
2022/07/03 00:15:22;;;;;;;2.72;1.98;;;24.50;60.10;;;;;;4946040;28;20044;-80
2022/07/03 00:17:48;;;;;;;2.70;2.08;;;24.50;60.00;;;;;;4932378;29;20036;-81
2022/07/03 00:20:14;;;;;;;2.35;1.90;;;24.50;60.10;;;;;;4918156;29;20032;-81
2022/07/03 00:22:43;;;;;;;3.72;1.90;;;24.50;60.00;;;;;;4933741;29;20028;-80
2022/07/03 00:25:12;;;;;;;2.80;2.20;;;24.40;60.00;;;;;;4967264;28;20031;-80
2022/07/03 00:27:39;;;;;;;2.63;2.00;;;24.40;60.10;;;;;;4935585;29;20503;-81
2022/07/03 00:30:07;;;;;;;4.00;1.98;;;24.50;60.00;;;;;;4936065;29;20043;-80
2022/07/03 00:32:34;;;;;;;2.90;2.10;;;24.40;60.00;;;;;;4950748;29;20047;-80
2022/07/03 00:35:01;;;;;;;3.20;2.30;;;24.50;60.00;;;;;;4935645;29;20031;-80
2022/07/03 00:37:26;;;;;;;2.85;1.95;;;24.40;60.00;;;;;;4935303;29;20111;-80
2022/07/03 00:39:52;;;;;;;3.40;2.08;;;24.50;59.90;;;;;;4934640;29;20510;-80
2022/07/03 00:42:18;;;;;;;3.05;2.15;;;24.40;59.90;;;;;;4934574;29;20115;-80
2022/07/03 00:44:51;;;;;;;2.95;2.00;;;24.50;60.10;;;;;;4934162;29;20432;-80
2022/07/03 00:47:25;;;;;;;2.65;1.80;;;24.50;60.00;;;;;;4934109;29;20046;-80
2022/07/03 00:49:55;;;;;;;3.55;2.08;;;24.50;60.00;;;;;;4934435;29;20036;-80
2022/07/03 00:52:22;;;;;;;2.95;2.03;;;24.50;60.10;;;;;;4934446;29;20035;-80
2022/07/03 00:54:56;;;;;;;2.45;2.00;;;24.50;60.10;;;;;;4950024;29;20032;-80
2022/07/03 00:57:24;;;;;;;3.65;2.17;;;24.40;59.90;;;;;;4965987;28;20027;-80
2022/07/03 00:59:50;;;;;;;2.13;1.92;;;24.50;59.90;;;;;;4935350;29;20024;-80
2022/07/03 01:02:40;;;;;;;3.20;2.10;;;24.50;59.90;;;;;;4935287;29;20024;-80
2022/07/03 01:05:57;;;;;;;3.28;2.20;;;24.50;60.00;;;;;;4965940;28;20027;-80
2022/07/03 01:08:32;;;;;;;3.03;2.13;;;24.50;60.00;;;;;;4894967;29;20401;-80
2022/07/03 01:11:24;;;;;;;2.38;1.85;;;24.50;60.10;;;;;;4894897;29;20033;-80
2022/07/03 01:14:08;;;;;;;3.10;2.03;;;24.50;59.90;;;;;;4921721;29;20051;-80
2022/07/03 01:16:38;;;;;;;2.38;1.95;;;24.40;59.80;;;;;;4926062;29;20043;-80
2022/07/03 01:19:22;;;;;;;;;;;24.40;59.90;;;;;;4934621;29;20110;-80
2022/07/03 01:22:08;;;;;;;2.50;1.88;;;24.40;59.90;;;;;;4917158;29;20376;-80
2022/07/03 01:24:42;;;;;;;2.42;1.77;;;24.40;60.40;;;;;;4948537;28;20043;-80
2022/07/03 01:27:14;;;;;;;2.53;1.80;;;24.40;59.90;;;;;;4933991;29;20031;-80
2022/07/03 01:30:06;;;;;;;2.67;1.90;;;24.50;59.90;;;;;;4934212;29;20028;-80
2022/07/03 01:32:41;;;;;;;3.33;1.95;;;24.40;59.90;;;;;;4933641;29;20040;-80
2022/07/03 01:35:10;;;;;;;3.13;1.98;;;24.40;60.00;;;;;;4933980;29;20396;-81
2022/07/03 01:37:39;;;;;;;3.38;2.08;;;24.40;59.90;;;;;;4948471;29;20054;-80
2022/07/03 01:40:06;;;;;;;3.40;2.30;;;24.40;60.00;;;;;;4934024;29;20122;-80
2022/07/03 01:42:41;;;;;;;2.92;2.00;;;24.40;59.80;;;;;;4948618;29;20028;-80
2022/07/03 01:45:09;;;;;;;3.30;2.10;;;24.40;59.80;;;;;;4933818;29;20032;-80
2022/07/03 01:47:38;;;;;;;2.67;2.08;;;24.40;60.10;;;;;;4933688;29;20027;-80
2022/07/03 01:50:06;;;;;;;3.65;2.45;;;24.40;59.90;;;;;;4932810;29;20040;-80
2022/07/03 01:52:32;;;;;;;2.42;1.83;;;24.40;60.50;;;;;;4948514;29;20039;-80
2022/07/03 01:55:02;;;;;;;3.08;2.10;;;24.40;59.80;;;;;;4933664;29;20481;-80
2022/07/03 01:57:35;;;;;;;;;;;24.40;60.00;;;;;;4932687;29;20043;-80
2022/07/03 02:00:01;;;;;;;2.67;2.00;;;24.40;59.90;;;;;;4933757;29;19911;-80
2022/07/03 02:02:44;;;;;;;3.33;2.20;;;24.40;59.90;;;;;;4947289;29;20079;-80
2022/07/03 02:05:18;;;;;;;2.72;2.05;;;24.40;59.90;;;;;;4933692;29;20038;-79
2022/07/03 02:08:00;;;;;;;3.47;2.28;;;24.40;60.00;;;;;;4948334;29;20036;-79
2022/07/03 02:10:33;;;;;;;3.92;2.60;;;24.40;59.90;;;;;;4933760;29;20036;-79
2022/07/03 02:13:10;;;;;;;2.92;2.13;;;24.40;59.90;;;;;;4896732;29;1073654;-79
2022/07/03 02:15:41;;;;;;;3.85;2.47;;;24.40;59.90;;;;;;4933908;29;20027;-80
2022/07/03 02:18:27;;;;;;;4.43;2.38;;;24.40;59.90;;;;;;4934423;29;20120;-80
2022/07/03 02:21:15;;;;;;;3.42;2.10;;;24.40;60.00;;;;;;4933201;29;20052;-80
2022/07/03 02:24:03;;;;;;;3.28;2.10;;;24.40;59.90;;;;;;4936247;29;20031;-80
2022/07/03 02:26:38;;;;;;;3.17;2.30;;;24.40;59.90;;;;;;4937719;29;20036;-80
2022/07/03 02:29:17;;;;;;;2.58;1.90;;;24.40;60.00;;;;;;4938213;29;20036;-79
2022/07/03 02:31:54;;;;;;;2.78;2.10;;;24.40;59.90;;;;;;4937062;29;20039;-79
2022/07/03 02:34:23;;;;;;;3.75;2.30;;;24.40;59.90;;;;;;4952627;28;20039;-80
2022/07/03 02:36:52;;;;;;;3.40;2.38;;;24.40;60.50;;;;;;4937445;29;20038;-79
2022/07/03 02:39:31;;;;;;;2.90;2.00;;;24.40;60.00;;;;;;4936673;29;20031;-79
2022/07/03 02:42:00;;;;;;;3.33;2.20;;;24.50;60.00;;;;;;4937964;29;20107;-80
2022/07/03 02:44:45;;;;;;;2.83;2.00;;;24.40;59.90;;;;;;4937649;29;20035;-80
2022/07/03 02:47:35;;;;;;;3.13;2.10;;;24.40;59.90;;;;;;4952148;29;20504;-80
2022/07/03 02:50:06;;;;;;;5.03;2.53;;;24.40;59.80;;;;;;4937684;29;20039;-80
2022/07/03 02:52:40;;;;;;;3.33;2.30;;;24.40;59.80;;;;;;4937417;29;20428;-80
2022/07/03 02:55:33;;;;;;;3.85;2.20;;;24.40;59.80;;;;;;4937219;29;20039;-80
2022/07/03 02:58:20;;;;;;;4.43;2.20;;;24.40;59.90;;;;;;4937153;29;20087;-80
2022/07/03 03:01:12;;;;;;;2.50;2.03;;;24.40;59.90;;;;;;4937323;29;20095;-80
2022/07/03 03:03:44;;;;;;;3.50;2.30;;;24.40;59.80;;;;;;4935741;29;20031;-79
2022/07/03 03:06:15;;;;;;;3.28;2.13;;;24.40;59.80;;;;;;4937089;29;20031;-80
2022/07/03 03:08:48;;;;;;;3.13;2.20;;;24.40;59.80;;;;;;4937339;29;20106;-80
2022/07/03 03:11:37;;;;;;;3.95;2.78;;;24.40;59.80;;;;;;4937425;29;20114;-80
2022/07/03 03:14:07;;;;;;;3.25;2.20;;;24.40;59.80;;;;;;4936932;29;20043;-79
2022/07/03 03:16:35;;;;;;;3.20;2.13;;;24.40;59.90;;;;;;4937070;29;20058;-80
2022/07/03 03:19:01;;;;;;;2.92;2.10;;;24.40;59.80;;;;;;4936900;29;20087;-80
2022/07/03 03:21:31;;;;;;;3.08;2.28;;;24.40;59.80;;;;;;4935751;29;20028;-80
2022/07/03 03:23:58;;;;;;;2.67;1.95;;;24.40;59.90;;;;;;4935466;29;20038;-80
2022/07/03 03:26:31;;;;;;;2.90;2.17;;;24.40;60.00;;;;;;4936406;29;20036;-80
2022/07/03 03:28:58;;;;;;;3.28;2.08;;;24.40;59.90;;;;;;4936936;29;20388;-80
2022/07/03 03:31:24;;;;;;;3.83;2.40;;;24.30;59.80;;;;;;4936905;29;20035;-80
2022/07/03 03:33:51;;;;;;;3.05;2.00;;;24.40;59.80;;;;;;4936273;29;20067;-80
2022/07/03 03:36:19;;;;;;;3.10;2.13;;;24.30;59.90;;;;;;4935759;29;20110;-80
2022/07/03 03:38:46;;;;;;;3.88;2.15;;;24.40;59.90;;;;;;4936802;29;20031;-80
2022/07/03 03:41:12;;;;;;;2.70;1.90;;;24.30;59.90;;;;;;4936687;29;20107;-80
2022/07/03 03:43:39;;;;;;;2.78;2.13;;;24.40;60.00;;;;;;4936595;29;20437;-79
2022/07/03 03:46:05;;;;;;;3.38;2.30;;;24.30;59.90;;;;;;4936346;29;20520;-79
2022/07/03 03:48:34;;;;;;;3.20;2.17;;;24.30;59.90;;;;;;4936556;29;20064;-79
2022/07/03 03:51:01;;;;;;;3.50;2.15;;;24.30;60.40;;;;;;4936865;29;20066;-79
2022/07/03 03:53:28;;;;;;;3.67;2.13;;;24.40;59.80;;;;;;4936574;29;20091;-80
2022/07/03 03:56:03;;;;;;;2.97;2.10;;;24.40;59.90;;;;;;4936132;29;20159;-80
2022/07/03 03:58:30;;;;;;;3.67;2.38;;;24.30;59.80;;;;;;4951127;28;20039;-80
2022/07/03 04:00:57;;;;;;;3.63;2.33;;;24.40;59.90;;;;;;4936410;29;20027;-80
2022/07/03 04:03:24;;;;;;;3.78;2.60;;;24.30;59.80;;;;;;4950985;28;20032;-81
2022/07/03 04:05:49;;;;;;;3.50;2.13;;;24.40;59.80;;;;;;4936264;29;20028;-80
2022/07/03 04:08:15;;;;;;;3.50;2.10;;;24.40;59.90;;;;;;4936144;29;20369;-79
2022/07/03 04:10:41;;;;;;;2.97;2.15;;;24.40;59.80;;;;;;4950986;29;20114;-80
2022/07/03 04:13:07;;;;;;;2.85;2.10;;;24.40;59.80;;;;;;4935939;29;20035;-80
2022/07/03 04:15:33;;;;;;;4.10;2.10;;;24.40;59.80;;;;;;4936082;29;20082;-79
2022/07/03 04:17:58;;;;;;;2.50;2.03;;;24.40;59.80;;;;;;4950674;29;20114;-80
2022/07/03 04:20:24;;;;;;;3.25;2.20;;;24.40;59.80;;;;;;4936281;29;20027;-79
2022/07/03 04:22:50;;;;;;;3.30;1.98;;;24.40;59.80;;;;;;4935755;29;20027;-79
2022/07/03 04:25:19;;;;;;;4.72;2.22;;;24.40;59.80;;;;;;4935698;29;20024;-80
2022/07/03 04:27:45;;;;;;;3.53;2.13;;;24.40;59.80;;;;;;4935538;29;20047;-79
2022/07/03 04:30:11;;;;;;;2.30;1.70;;;24.40;59.80;;;;;;4935615;29;20396;-79
2022/07/03 04:32:38;;;;;;;3.47;2.50;;;24.40;59.80;;;;;;4935824;29;20035;-80
2022/07/03 04:35:04;;;;;;;2.85;1.77;;;24.40;59.80;;;;;;4934607;29;20114;-80
2022/07/03 04:37:30;;;;;;;2.88;2.00;;;24.40;59.80;;;;;;4934106;29;20036;-80
2022/07/03 04:39:56;;;;;;;3.03;2.30;;;24.40;59.90;;;;;;4935578;29;20039;-79
2022/07/03 04:42:22;;;;;;;2.90;2.28;;;24.40;59.80;;;;;;4935540;29;20023;-79
2022/07/03 04:44:48;;;;;;;3.03;2.15;;;24.40;59.80;;;;;;4950241;29;20102;-80
2022/07/03 04:47:14;;;;;;;2.92;2.13;;;24.40;59.80;;;;;;4934982;29;20031;-79
2022/07/03 04:49:41;;;;;;;2.92;1.80;;;24.40;59.80;;;;;;4950304;28;20118;-79
2022/07/03 04:52:07;;;;;;;4.85;2.33;;;24.40;59.90;;;;;;4935369;29;20043;-79
2022/07/03 04:54:33;;;;;;;2.58;1.83;;;24.40;59.80;;;;;;4935596;29;20042;-80
2022/07/03 04:56:59;;;;;;;2.53;1.90;;;24.30;59.80;;;;;;4933946;29;20035;-79
2022/07/03 04:59:25;;;;;;;3.22;2.40;;;24.40;59.80;;;;;;4934254;29;20059;-79
2022/07/03 05:01:51;;;;;;;3.92;2.30;;;24.40;59.80;;;;;;4935284;29;20086;-79
2022/07/03 05:04:17;;;;;;;2.60;2.10;;;24.30;59.70;;;;;;4949866;29;20114;-80
2022/07/03 05:06:43;;;;;;;3.83;2.20;;;24.40;59.90;;;;;;4933823;29;20092;-79
2022/07/03 05:09:10;;;;;;;3.42;2.08;;;24.40;59.80;;;;;;4933859;29;20396;-80
2022/07/03 05:11:36;;;;;;;4.25;2.50;;;24.40;60.00;;;;;;4933839;29;20028;-79
2022/07/03 05:14:03;;;;;;;3.70;2.15;;;24.40;59.80;;;;;;4918146;29;20070;-79
2022/07/03 05:16:29;;;;;;;2.88;2.10;;;24.30;59.80;;;;;;4933394;29;20437;-80
2022/07/03 05:18:55;;;;;;;3.25;2.22;;;24.40;59.90;;;;;;4935195;29;20066;-80
2022/07/03 05:21:20;;;;;;;2.70;2.13;;;24.40;59.90;;;;;;4934967;29;20031;-80
2022/07/03 05:23:46;;;;;;;3.17;2.13;;;24.40;59.80;;;;;;4949707;29;20059;-80
2022/07/03 05:26:12;;;;;;;2.80;1.90;;;24.40;59.80;;;;;;4933638;29;20042;-79
2022/07/03 05:28:38;;;;;;;3.20;2.30;;;24.30;59.80;;;;;;4933615;29;20480;-78
2022/07/03 05:31:04;;;;;;;2.80;2.05;;;24.40;59.80;;;;;;4935049;29;20039;-84
2022/07/03 05:33:30;;;;;;;2.47;1.92;;;24.40;59.80;;;;;;4934989;29;20443;-83
2022/07/03 05:35:56;;;;;;;3.55;2.10;;;24.40;59.80;;;;;;4934399;29;20032;-83
2022/07/03 05:41:07;;;;;;;3.42;2.47;;;24.40;59.80;;;;;;4935010;29;20035;-83
2022/07/03 05:43:33;;;;;;;2.85;1.90;;;24.40;59.80;;;;;;4934701;29;20028;-83
2022/07/03 05:45:59;;;;;;;4.03;2.60;;;24.40;59.80;;;;;;4934502;29;20028;-83
2022/07/03 05:48:25;;;;;;;3.78;2.40;;;24.40;59.70;;;;;;4949369;29;20028;-83
2022/07/03 05:50:51;;;;;;;2.75;2.08;;;24.40;59.80;;;;;;4949495;28;20028;-83
2022/07/03 05:53:17;;;;;;;2.67;1.80;;;24.40;59.80;;;;;;4934619;29;20115;-84
2022/07/03 05:55:42;;;;;;;3.33;2.35;;;24.40;59.60;;;;;;4933194;29;20107;-83
2022/07/03 05:58:08;;;;;;;2.90;1.90;;;24.40;59.70;;;;;;4918766;29;20032;-83
2022/07/03 06:00:34;;;;;;;3.53;2.20;;;24.50;59.80;;;;;;4938800;29;20020;-85
2022/07/03 06:03:01;;;;;;;2.90;2.03;;;24.50;59.80;;;;;;4937324;29;20137;-84
2022/07/03 06:05:28;;;;;;;2.83;1.75;;;24.40;59.70;;;;;;4938822;29;20036;-84
2022/07/03 06:07:54;;;;;;;3.92;2.42;;;24.40;59.70;;;;;;4937335;29;20122;-83
2022/07/03 06:10:20;;;;;;;3.17;2.20;;;24.50;59.70;;;;;;4938446;29;20522;-84
2022/07/03 06:12:47;;;;;;;3.67;2.13;;;24.40;59.60;;;;;;4921467;29;20035;-83
2022/07/03 06:15:12;;;;;;;2.58;1.95;;;24.40;59.70;;;;;;4981891;23;20085;-83
2022/07/03 06:17:38;;;;;;;4.15;2.40;;;24.50;59.70;;;;;;4975897;28;20450;-82
2022/07/03 06:20:14;;;;;;;3.38;2.30;;;24.40;59.50;;;;;;4976987;28;20031;-82
2022/07/03 06:22:40;;;;;;;3.67;2.20;;;24.40;59.60;;;;;;4975645;28;20114;-83
2022/07/03 06:25:07;;;;;;;3.22;2.40;;;24.40;59.50;;;;;;4975548;28;20058;-83
2022/07/03 06:27:33;;;;;;;3.08;2.10;;;24.40;59.70;;;;;;4976700;28;20086;-82
2022/07/03 06:29:59;;;;;;;2.92;2.30;;;24.40;59.60;;;;;;4975276;28;20039;-82
2022/07/03 06:32:25;;;;;;;2.70;1.90;;;24.40;59.60;;;;;;4975938;28;20038;-82
2022/07/03 06:34:51;;;;;;;3.35;2.35;;;24.40;59.60;;;;;;4975362;28;20035;-83
2022/07/03 06:37:17;;;;;;;5.15;2.45;;;24.40;59.60;;;;;;4991162;28;20399;-83
2022/07/03 06:39:42;;;;;;;2.95;2.03;;;24.40;59.60;;;;;;4975063;28;20038;-84
2022/07/03 06:42:08;;;;;;;3.38;2.08;;;24.40;59.60;;;;;;4976530;28;20031;-84
2022/07/03 06:44:34;;;;;;;2.40;1.95;;;24.40;59.60;;;;;;4975358;28;20022;-84
2022/07/03 06:47:03;;;;;;;3.03;2.30;;;24.40;59.60;;;;;;4976074;28;20543;-84
2022/07/03 06:49:31;;;;;;;3.95;2.40;;;24.40;59.80;;;;;;4976464;28;20455;-84
2022/07/03 06:51:57;;;;;;;2.83;2.10;;;24.40;59.60;;;;;;4976259;28;20030;-84
2022/07/03 06:54:23;;;;;;;2.30;1.88;;;24.40;59.70;;;;;;4976597;28;20280;-84
2022/07/03 06:56:49;;;;;;;3.25;2.38;;;24.40;59.80;;;;;;4976013;28;20037;-84
2022/07/03 06:59:15;;;;;;;3.10;2.28;;;24.40;59.70;;;;;;4976216;28;20027;-84
2022/07/03 07:01:41;;;;;;;3.33;2.05;;;24.40;59.70;;;;;;4976157;28;20030;-84
2022/07/03 07:04:07;;;;;;;2.92;2.25;;;24.40;59.70;;;;;;4975911;28;20050;-83
2022/07/03 07:06:33;;;;;;;4.13;2.40;;;24.40;59.60;;;;;;4958372;28;20037;-83
2022/07/03 07:08:58;;;;;;;3.45;2.20;;;24.40;59.60;;;;;;4975605;28;20042;-84
2022/07/03 07:11:24;;;;;;;2.70;2.00;;;24.40;59.80;;;;;;4975894;28;20034;-84
2022/07/03 07:13:50;;;;;;;3.45;2.45;;;24.40;59.70;;;;;;4975753;28;20031;-84
2022/07/03 07:16:16;;;;;;;3.90;2.33;;;24.40;59.70;;;;;;4975555;28;20035;-84
2022/07/03 07:18:43;;;;;;;3.45;2.30;;;24.50;59.60;;;;;;4975834;28;20308;-83
2022/07/03 07:21:09;;;;;;;3.20;2.40;;;24.40;59.70;;;;;;4958702;28;20514;-84
2022/07/03 07:23:35;;;;;;;4.40;2.45;;;24.40;59.80;;;;;;4974495;28;20038;-84
2022/07/03 07:26:01;;;;;;;2.83;2.15;;;24.40;59.60;;;;;;4974340;28;20026;-84
2022/07/03 07:28:28;;;;;;;3.40;2.30;;;24.50;59.70;;;;;;4975571;28;20411;-84
2022/07/03 07:30:55;;;;;;;2.83;2.10;;;24.50;59.70;;;;;;4975594;28;20033;-83
2022/07/03 07:33:21;;;;;;;2.97;2.15;;;24.50;59.60;;;;;;4974260;28;20054;-84
2022/07/03 07:35:47;;;;;;;3.90;2.45;;;24.50;59.60;;;;;;4975124;28;20027;-82
2022/07/03 07:38:13;;;;;;;3.40;2.45;;;24.50;60.20;;;;;;4975339;28;20046;-83
2022/07/03 07:40:39;;;;;;;3.47;2.25;;;24.50;59.70;;;;;;4975404;28;20023;-82
2022/07/03 07:43:04;;;;;;;3.53;2.20;;;24.50;59.60;;;;;;4975547;28;20031;-83
2022/07/03 07:45:30;;;;;;;2.70;2.22;;;24.50;59.60;;;;;;4975248;28;20379;-83
2022/07/03 07:47:56;;;;;;;3.17;2.08;;;24.50;59.60;;;;;;4974957;28;20034;-82
2022/07/03 07:50:23;;;;;;;2.70;2.05;;;24.50;59.60;;;;;;4975223;28;20075;-82
2022/07/03 07:52:49;;;;;;;2.92;2.15;;;24.50;59.60;;;;;;4990074;28;20499;-83
2022/07/03 07:55:15;;;;;;;2.90;2.10;;;24.50;59.60;;;;;;4974924;28;20031;-84
2022/07/03 07:57:41;;;;;;;3.17;2.05;;;24.50;59.70;;;;;;4974610;28;20472;-82
2022/07/03 08:00:12;;;;;;;3.88;2.45;;;24.50;59.80;;;;;;4973846;28;20033;-84
2022/07/03 08:05:36;;;;;;;2.80;2.20;;;24.50;59.80;;;;;;4974077;28;20038;-83
2022/07/03 08:08:09;;;;;;;2.97;2.13;;;24.50;59.80;;;;;;4989866;28;20087;-83
2022/07/03 08:10:46;;;;;;;2.55;1.80;;;24.50;59.80;;;;;;4973844;28;20042;-83
2022/07/03 08:13:13;;;;;;;3.13;2.00;;;24.50;59.80;;;;;;4989871;28;20035;-83
2022/07/03 08:15:40;;;;;;;3.15;2.15;;;24.50;59.90;;;;;;4973030;28;20395;-83
2022/07/03 08:18:06;;;;;;;2.45;1.88;;;24.50;59.90;;;;;;4973435;28;20456;-83
2022/07/03 08:20:33;;;;;;;3.00;2.05;;;24.50;59.90;;;;;;4973937;28;20062;-83
2022/07/03 08:22:59;;;;;;;3.20;2.00;;;24.50;59.90;;;;;;4974634;28;20027;-83
2022/07/03 08:25:25;;;;;;;3.63;2.22;;;24.50;59.90;;;;;;4974319;28;20129;-82
2022/07/03 08:27:52;;;;;;;2.90;2.03;;;24.50;59.90;;;;;;4957239;28;20484;-82
2022/07/03 08:30:18;;;;;;;2.60;1.80;;;24.50;59.90;;;;;;4973666;28;20038;-86
2022/07/03 08:32:49;;;;;;;3.00;2.13;;;24.50;60.00;;;;;;4973093;28;20062;-83
2022/07/03 08:35:14;;;;;;;2.95;2.08;;;24.50;59.90;;;;;;4974082;28;20038;-82
2022/07/03 08:37:40;;;;;;;2.60;1.90;;;24.50;60.00;;;;;;4972638;28;20039;-81
2022/07/03 08:40:08;;;;;;;3.08;2.15;;;24.50;59.90;;;;;;4974136;28;20105;-82
2022/07/03 08:42:38;;;;;;;2.72;2.08;;;24.50;60.00;;;;;;4989232;28;20165;-85
2022/07/03 08:45:11;;;;;;;2.25;1.83;;;24.50;59.90;;;;;;4974301;28;20022;-84
2022/07/03 08:47:38;;;;;;;2.40;1.88;;;24.50;60.00;;;;;;4972500;28;20035;-84
2022/07/03 08:50:05;;;;;;;2.92;2.10;;;24.50;60.00;;;;;;4973232;28;20054;-84
2022/07/03 08:52:33;;;;;;;3.08;2.10;;;24.50;59.90;;;;;;4974089;28;20034;-83
2022/07/03 08:54:58;;;;;;;3.10;1.90;;;24.50;60.50;;;;;;4973195;28;20300;-84
2022/07/03 08:57:26;;;;;;;3.03;2.17;;;24.50;60.00;;;;;;4956700;28;20026;-84
2022/07/03 08:59:53;;;;;;;2.40;1.90;;;24.50;59.90;;;;;;4973018;28;20046;-86
2022/07/03 09:02:20;;;;;;;2.85;2.03;;;24.50;60.00;;;;;;4973783;28;20499;-84
2022/07/03 09:04:47;;;;;;;3.10;2.20;;;24.50;59.90;;;;;;4973836;28;20489;-85
2022/07/03 09:07:13;;;;;;;2.75;1.88;;;24.50;60.00;;;;;;4973586;28;20487;-85
2022/07/03 09:09:40;;;;;;;2.45;1.80;;;24.50;60.00;;;;;;4972910;28;20031;-82
2022/07/03 09:12:06;;;;;;;2.72;1.85;;;24.50;59.90;;;;;;4972842;28;20038;-85
2022/07/03 09:14:32;;;;;;;2.60;2.00;;;24.50;59.90;;;;;;4988858;28;20121;-88
2022/07/03 09:16:59;;;;;;;2.72;1.90;;;24.50;59.90;;;;;;4974082;28;20466;-86
2022/07/03 09:19:48;;;;;;;2.25;1.70;;;24.50;59.90;;;;;;4974474;28;20062;-87
2022/07/03 09:22:24;;;;;;;2.47;1.75;;;24.50;59.80;;;;;;4974454;28;20030;-87
2022/07/03 09:25:13;;;;;;;2.65;1.92;;;24.50;59.90;;;;;;4974197;28;20022;-86
2022/07/03 09:27:51;;;;;;;3.05;1.90;;;24.50;59.80;;;;;;4973738;28;20035;-84
2022/07/03 09:30:17;;;;;;;2.53;1.92;;;24.60;59.90;;;;;;4973711;28;20104;-85
2022/07/03 09:32:45;;;;;;;2.80;1.95;;;24.50;59.90;;;;;;4973360;28;20117;-90
2022/07/03 09:35:23;;;;;;;2.65;2.00;;;24.60;60.00;;;;;;4974072;28;20035;-88
2022/07/03 09:38:01;;;;;;;3.15;2.08;;;24.60;60.00;;;;;;4989276;28;20111;-91
2022/07/03 09:40:54;;;;;;;3.05;2.08;;;24.50;60.00;;;;;;4973470;28;20035;-87
2022/07/03 09:43:29;;;;;;;2.47;1.90;;;24.50;60.00;;;;;;4974097;28;20026;-87
2022/07/03 09:45:56;;;;;;;3.10;2.15;;;24.50;60.00;;;;;;4989201;28;20480;-88
2022/07/03 09:48:26;;;;;;;3.00;1.90;;;24.50;60.00;;;;;;4974265;28;20039;-88
2022/07/03 09:51:23;;;;;;;2.72;2.05;;;24.50;60.00;;;;;;4974355;28;20037;-88
2022/07/03 09:54:06;;;;;;;2.65;1.80;;;24.50;60.00;;;;;;4974088;28;20475;-87
2022/07/03 09:56:37;;;;;;;2.13;1.70;;;24.50;60.00;;;;;;4973524;28;20031;-86
2022/07/03 09:59:13;;;;;;;2.58;1.77;;;24.50;60.10;;;;;;4972776;28;20046;-86
2022/07/03 10:01:46;;;;;;;2.10;1.75;;;24.50;60.10;;;;;;4973405;28;20480;-86
2022/07/03 10:04:18;;;;;;;2.45;1.80;;;24.50;60.10;;;;;;4973707;28;20208;-85
2022/07/03 10:06:48;;;;;;;2.95;2.15;;;24.50;60.10;;;;;;4972858;28;20413;-84
2022/07/03 10:09:20;;;;;;;2.97;2.25;;;24.50;60.10;;;;;;4976292;28;20163;-82
2022/07/03 10:11:46;;;;;;;3.25;1.85;;;24.50;60.10;;;;;;4975194;28;20049;-81
2022/07/03 10:14:20;;;;;;;2.28;1.83;;;24.50;60.10;;;;;;4973593;28;20043;-84
2022/07/03 10:16:46;;;;;;;3.05;1.73;;;24.50;60.20;;;;;;4975560;28;20395;-82
2022/07/03 10:19:20;;;;;;;2.70;1.90;;;24.50;60.10;;;;;;4975728;28;20081;-83
2022/07/03 10:21:52;;;;;;;2.45;1.77;;;24.50;60.10;;;;;;4974677;28;20054;-83
2022/07/03 10:24:23;;;;;;;2.75;1.88;;;24.50;60.20;;;;;;4972814;28;20023;-84
2022/07/03 10:26:50;;;;;;;3.20;2.25;;;24.50;60.20;;;;;;4972876;28;20029;-84
2022/07/03 10:29:16;;;;;;;3.25;1.98;;;24.50;60.20;;;;;;4972840;28;20031;-84
2022/07/03 10:31:46;;;;;;;2.58;1.88;;;24.50;60.20;;;;;;4987652;28;20114;-85
2022/07/03 10:34:15;;;;;;;;;;;24.50;60.20;;;;;;4973108;28;20031;-84
2022/07/03 10:36:41;;;;;;;2.53;1.75;;;24.50;60.20;;;;;;4972858;28;19913;-83
2022/07/03 10:39:10;;;;;;;2.60;2.00;;;24.50;60.10;;;;;;4972729;28;20546;-83
2022/07/03 10:44:46;;;;;;;2.53;1.70;;;24.50;60.20;;;;;;4975526;28;20038;-82
2022/07/03 10:47:44;;;;;;;2.90;2.00;;;24.50;60.10;;;;;;4977057;28;20023;-83
2022/07/03 10:50:14;;;;;;;2.20;1.73;;;24.50;60.10;;;;;;4977478;28;20038;-82
2022/07/03 10:52:41;;;;;;;1.85;1.58;;;24.50;60.10;;;;;;4991955;28;20106;-84
2022/07/03 10:55:08;;;;;;;2.90;1.90;;;24.60;60.10;;;;;;4976146;28;20038;-83
2022/07/03 10:57:35;;;;;;;2.08;1.70;;;24.60;60.10;;;;;;4974795;28;20037;-83
2022/07/03 11:00:02;;;;;;;2.20;1.75;;;24.50;60.00;;;;;;4991249;28;20023;-84
2022/07/03 11:02:30;;;;;;;2.90;1.70;;;24.60;60.10;;;;;;4976081;28;20105;-83
2022/07/03 11:04:59;;;;;;;2.70;1.92;;;24.60;60.10;;;;;;4975989;28;20046;-85
2022/07/03 11:07:29;;;;;;;2.83;1.92;;;24.60;60.00;;;;;;4990642;28;20513;-84
2022/07/03 11:10:13;;;;;;;2.67;1.92;;;24.60;60.60;;;;;;4974716;28;20459;-82
2022/07/03 11:12:58;;;;;;;3.03;2.15;;;24.60;60.10;;;;;;4990785;28;20030;-84
2022/07/03 11:15:32;;;;;;;3.10;2.25;;;24.60;60.10;;;;;;4975489;28;20126;-82
2022/07/03 11:18:20;;;;;;;4.05;2.70;;;24.50;60.00;;;;;;4975354;28;20081;-80
2022/07/03 11:20:49;;;;;;;4.07;2.45;;;24.60;60.20;;;;;;4974655;28;20035;-83
2022/07/03 11:23:27;;;;;;;3.33;2.30;;;24.60;60.40;;;;;;4975464;28;20035;-84
2022/07/03 11:25:54;;;;;;;2.60;1.70;;;24.60;61.60;;;;;;4975405;28;20500;-85
2022/07/03 11:28:32;;;;;;;4.60;2.50;;;24.60;61.50;;;;;;4975149;28;20043;-82
2022/07/03 11:33:42;;;;;;;18.15;12.75;;;24.70;62.30;;;;;;4974083;28;20038;-75
2022/07/03 11:36:31;;;;;;;16.52;7.22;;;24.80;58.90;;;;;;4974936;28;20090;-73
2022/07/03 11:39:00;;;;;;;12.50;6.97;;;24.80;58.10;;;;;;4966625;28;20098;-81
2022/07/03 11:41:47;;;;;;;11.20;5.95;;;24.90;57.20;;;;;;4974404;28;20534;-86
2022/07/03 11:44:19;;;;;;;11.43;6.45;;;24.90;59.80;;;;;;4974458;28;20035;-82
2022/07/03 11:46:49;;;;;;;12.50;6.50;;;24.90;58.40;;;;;;4975086;28;20121;-81
2022/07/03 11:49:16;;;;;;;12.25;6.07;;;24.80;58.80;;;;;;4975670;28;20554;-84
2022/07/03 11:51:54;;;;;;;12.75;5.90;;;24.80;59.20;;;;;;4974613;28;20038;-88
2022/07/03 11:54:19;;;;;;;8.73;5.13;;;24.70;59.30;;;;;;4974485;28;20023;-83
2022/07/03 11:56:45;;;;;;;9.80;5.82;;;24.70;59.40;;;;;;4972721;28;20035;-83
2022/07/03 11:59:11;;;;;;;11.57;5.65;;;24.70;59.00;;;;;;4974444;28;20121;-83
2022/07/03 12:01:39;;;;;;;8.88;5.80;;;24.70;59.30;;;;;;4973826;28;20034;-83
2022/07/03 12:04:19;;;;;;;8.20;5.65;;;24.70;59.30;;;;;;4973994;28;20031;-82
2022/07/03 12:06:48;;;;;;;8.55;5.47;;;24.70;59.50;;;;;;4973624;28;20085;-82
2022/07/03 12:09:20;;;;;;;11.98;5.32;;;24.70;59.40;;;;;;4975000;28;20027;-81
2022/07/03 12:11:55;;;;;;;9.88;5.95;;;24.70;59.40;;;;;;4974751;28;20034;-82
2022/07/03 12:14:36;;;;;;;9.77;5.57;;;24.60;59.50;;;;;;4996509;23;20106;-71
2022/07/03 12:17:02;;;;;;;9.57;5.57;;;24.60;59.50;;;;;;4937053;29;20063;-71
2022/07/03 12:19:27;;;;;;;12.18;6.05;;;24.60;59.60;;;;;;4938276;29;20058;-71
2022/07/03 12:21:53;;;;;;;10.38;5.32;;;24.60;59.60;;;;;;4938011;29;20023;-70
2022/07/03 12:24:20;;;;;;;9.90;5.65;;;24.60;59.60;;;;;;4937875;29;20090;-71
2022/07/03 12:26:47;;;;;;;10.25;5.95;;;24.60;59.60;;;;;;4954739;29;20055;-71
2022/07/03 12:29:15;;;;;;;9.30;5.30;;;24.60;59.60;;;;;;4922303;29;20098;-71
2022/07/03 12:31:49;;;;;;;8.85;5.60;;;24.60;59.70;;;;;;4953723;29;20087;-71
2022/07/03 12:34:15;;;;;;;10.05;5.90;;;24.60;59.70;;;;;;4955188;28;20094;-72
2022/07/03 12:36:55;;;;;;;8.55;5.40;;;24.60;59.60;;;;;;4921575;29;20407;-72
2022/07/03 12:39:20;;;;;;;10.88;5.82;;;24.60;59.60;;;;;;4954972;29;20443;-73
2022/07/03 12:41:46;;;;;;;9.52;4.95;;;24.60;59.70;;;;;;4953706;28;20110;-73
2022/07/03 12:44:17;;;;;;;9.43;5.13;;;24.60;59.80;;;;;;4954599;28;20024;-73
2022/07/03 12:46:43;;;;;;;10.23;5.78;;;24.60;59.80;;;;;;4954677;29;20436;-73
2022/07/03 12:49:13;;;;;;;7.18;4.32;;;24.60;59.80;;;;;;4954559;28;20166;-73
2022/07/03 12:51:49;;;;;;;9.75;5.35;;;24.60;59.80;;;;;;4954629;29;20093;-73
2022/07/03 12:54:35;;;;;;;8.43;4.90;;;24.60;59.80;;;;;;4937413;29;20488;-73
2022/07/03 12:59:16;;;;;;;8.25;5.38;;;24.60;59.90;;;;;;4954087;29;20042;-73
2022/07/03 13:00:16;;;;;;;9.43;5.00;;;24.60;59.80;;;;;;4954289;29;20035;-74
2022/07/03 13:02:46;;;;;;;7.82;4.97;;;24.60;59.90;;;;;;4954471;29;20035;-74
2022/07/03 13:05:23;;;;;;;11.30;5.30;;;24.60;59.90;;;;;;4954362;28;20027;-74
2022/07/03 13:07:54;;;;;;;8.40;4.85;;;24.60;60.00;;;;;;4936693;29;20058;-74
2022/07/03 13:10:22;;;;;;;7.80;4.90;;;24.60;60.50;;;;;;4937215;29;20082;-74
2022/07/03 13:12:56;;;;;;;8.77;5.28;;;24.60;60.00;;;;;;4954359;28;20035;-74
2022/07/03 13:15:27;;;;;;;10.57;5.43;;;24.60;60.00;;;;;;4954042;28;20492;-74